createdAt,value
2018-12-07T00:00:46.942Z,11.60
2018-12-07T00:03:14.449Z,11.60
2018-12-07T00:05:41.981Z,11.60
2018-12-07T00:08:09.501Z,11.60
2018-12-07T00:10:37.118Z,11.60
2018-12-07T00:13:05.517Z,11.60
2018-12-07T00:15:33.126Z,11.60
2018-12-07T00:18:00.645Z,11.60
2018-12-07T00:20:28.187Z,11.60
2018-12-07T00:22:55.672Z,11.60
2018-12-07T00:25:23.514Z,11.60
2018-12-07T00:27:51.011Z,11.60
2018-12-07T00:30:18.530Z,11.60
2018-12-07T00:32:46.037Z,11.50
2018-12-07T00:35:13.548Z,11.50
2018-12-07T00:37:41.049Z,11.50
2018-12-07T00:40:08.560Z,11.50
2018-12-07T00:42:36.064Z,11.50
2018-12-07T00:45:04.381Z,11.50
2018-12-07T00:47:31.905Z,12.60
2018-12-07T00:49:59.408Z,11.50
2018-12-07T00:52:27.002Z,11.50
2018-12-07T00:54:54.531Z,11.50
2018-12-07T00:57:22.073Z,11.50
2018-12-07T00:59:49.592Z,11.50
2018-12-07T01:02:17.137Z,11.50
2018-12-07T01:04:44.636Z,11.60
2018-12-07T01:07:12.174Z,11.60
2018-12-07T01:09:39.813Z,11.60
2018-12-07T01:12:07.341Z,11.60
2018-12-07T01:14:34.932Z,11.60
2018-12-07T01:17:02.425Z,11.60
2018-12-07T01:19:30.040Z,11.60
2018-12-07T01:21:57.556Z,11.50
2018-12-07T01:24:25.089Z,11.50
2018-12-07T01:26:52.600Z,11.50
2018-12-07T01:29:20.217Z,11.50
2018-12-07T01:31:47.944Z,11.50
2018-12-07T01:34:15.502Z,11.50
2018-12-07T01:36:43.027Z,11.50
2018-12-07T01:39:10.557Z,11.50
2018-12-07T01:41:38.112Z,11.50
2018-12-07T01:44:05.639Z,11.40
2018-12-07T01:46:33.168Z,11.40
2018-12-07T01:49:00.681Z,11.40
2018-12-07T01:51:28.189Z,11.30
2018-12-07T01:53:55.814Z,11.40
2018-12-07T01:56:23.354Z,11.30
2018-12-07T01:58:50.884Z,11.30
2018-12-07T02:01:18.388Z,11.30
2018-12-07T02:03:45.900Z,11.30
2018-12-07T02:06:13.417Z,11.20
2018-12-07T02:08:41.018Z,11.20
2018-12-07T02:11:08.624Z,11.20
2018-12-07T02:13:36.224Z,11.20
2018-12-07T02:16:03.748Z,11.20
2018-12-07T02:18:31.401Z,11.10
2018-12-07T02:20:58.905Z,11.10
2018-12-07T02:23:26.521Z,11.10
2018-12-07T02:25:54.029Z,11.10
2018-12-07T02:28:21.666Z,11.10
2018-12-07T02:30:49.257Z,11.10
2018-12-07T02:33:16.913Z,11.10
2018-12-07T02:35:44.423Z,11.10
2018-12-07T02:38:12.040Z,11.10
2018-12-07T02:40:39.645Z,11.00
2018-12-07T02:43:07.149Z,11.00
2018-12-07T02:45:34.661Z,11.10
2018-12-07T02:48:02.371Z,11.10
2018-12-07T02:50:29.885Z,11.10
2018-12-07T02:52:57.384Z,11.10
2018-12-07T02:55:24.989Z,11.10
2018-12-07T02:57:52.603Z,11.10
2018-12-07T03:00:20.086Z,11.10
2018-12-07T03:02:47.719Z,11.10
2018-12-07T03:05:15.379Z,11.10
2018-12-07T03:07:42.937Z,11.10
2018-12-07T03:10:10.514Z,11.10
2018-12-07T03:12:38.158Z,11.20
2018-12-07T03:15:05.761Z,11.20
2018-12-07T03:17:33.277Z,11.20
2018-12-07T03:20:00.778Z,11.20
2018-12-07T03:22:28.281Z,11.20
2018-12-07T03:24:55.950Z,11.20
2018-12-07T03:27:23.510Z,11.20
2018-12-07T03:29:51.068Z,11.20
2018-12-07T03:32:18.636Z,11.20
2018-12-07T03:34:46.234Z,11.20
2018-12-07T03:37:13.741Z,11.10
2018-12-07T03:39:41.250Z,11.10
2018-12-07T03:42:08.844Z,11.10
2018-12-07T03:44:36.355Z,11.10
2018-12-07T03:47:03.980Z,11.00
2018-12-07T03:49:31.641Z,11.00
2018-12-07T03:51:59.161Z,11.00
2018-12-07T03:54:26.662Z,11.00
2018-12-07T03:56:54.177Z,11.00
2018-12-07T03:59:21.686Z,11.00
2018-12-07T04:01:49.305Z,11.00
2018-12-07T04:04:16.830Z,11.00
2018-12-07T04:06:44.337Z,11.00
2018-12-07T04:09:11.862Z,11.00
2018-12-07T04:11:39.517Z,11.00
2018-12-07T04:14:07.478Z,10.90
2018-12-07T04:16:34.983Z,11.00
2018-12-07T04:19:02.548Z,11.00
2018-12-07T04:21:30.049Z,11.00
2018-12-07T04:23:57.565Z,11.00
2018-12-07T04:26:25.081Z,11.00
2018-12-07T04:28:52.683Z,11.00
2018-12-07T04:31:20.204Z,11.00
2018-12-07T04:33:47.805Z,11.00
2018-12-07T04:36:15.309Z,11.00
2018-12-07T04:38:42.871Z,11.00
2018-12-07T04:41:10.380Z,11.00
2018-12-07T04:43:38.036Z,11.00
2018-12-07T04:46:05.557Z,11.10
2018-12-07T04:48:33.059Z,11.10
2018-12-07T04:51:00.613Z,11.10
2018-12-07T04:53:28.182Z,11.10
2018-12-07T04:55:55.709Z,11.10
2018-12-07T04:58:23.254Z,11.10
2018-12-07T05:00:50.789Z,11.10
2018-12-07T05:03:18.364Z,11.10
2018-12-07T05:05:45.886Z,11.10
2018-12-07T05:08:13.401Z,11.20
2018-12-07T05:10:40.885Z,11.20
2018-12-07T05:13:08.405Z,11.20
2018-12-07T05:15:35.910Z,11.20
2018-12-07T05:18:03.446Z,11.20
2018-12-07T05:20:30.947Z,11.20
2018-12-07T05:22:58.565Z,11.20
2018-12-07T05:25:26.054Z,11.20
2018-12-07T05:27:53.650Z,11.20
2018-12-07T05:30:21.242Z,11.20
2018-12-07T05:32:48.733Z,11.20
2018-12-07T05:35:16.261Z,11.20
2018-12-07T05:37:43.865Z,11.20
2018-12-07T05:40:11.394Z,11.20
2018-12-07T05:42:38.909Z,11.20
2018-12-07T05:45:06.625Z,11.30
2018-12-07T05:47:34.158Z,11.30
2018-12-07T05:50:01.670Z,11.30
2018-12-07T05:52:29.382Z,11.30
2018-12-07T05:54:56.946Z,11.30
2018-12-07T05:57:24.653Z,11.30
2018-12-07T05:59:52.198Z,11.30
2018-12-07T06:02:19.722Z,11.30
2018-12-07T06:04:47.262Z,11.30
2018-12-07T06:07:14.778Z,11.30
2018-12-07T06:09:42.487Z,11.30
2018-12-07T06:12:10.070Z,11.30
2018-12-07T06:14:37.606Z,11.30
2018-12-07T06:17:05.161Z,11.30
2018-12-07T06:19:32.806Z,11.30
2018-12-07T06:22:00.326Z,11.30
2018-12-07T06:24:27.829Z,11.30
2018-12-07T06:26:55.506Z,11.30
2018-12-07T06:29:23.014Z,11.20
2018-12-07T06:31:50.545Z,11.20
2018-12-07T06:34:18.081Z,11.20
2018-12-07T06:36:45.581Z,11.10
2018-12-07T06:39:13.108Z,11.10
2018-12-07T06:41:40.645Z,11.10
2018-12-07T06:44:08.258Z,11.10
2018-12-07T06:46:35.760Z,11.00
2018-12-07T06:49:07.869Z,11.00
2018-12-07T06:51:35.369Z,11.00
2018-12-07T06:54:02.895Z,10.90
2018-12-07T06:56:30.400Z,10.90
2018-12-07T06:58:58.175Z,10.90
2018-12-07T07:01:25.724Z,10.90
2018-12-07T07:03:53.536Z,10.80
2018-12-07T07:06:21.148Z,10.90
2018-12-07T07:08:48.716Z,10.80
2018-12-07T07:11:16.226Z,10.80
2018-12-07T07:13:43.734Z,10.90
2018-12-07T07:16:11.281Z,10.90
2018-12-07T07:18:38.848Z,10.90
2018-12-07T07:21:06.405Z,10.90
2018-12-07T07:23:33.997Z,10.90
2018-12-07T07:26:01.518Z,10.90
2018-12-07T07:28:29.038Z,10.90
2018-12-07T07:30:56.753Z,10.90
2018-12-07T07:33:24.349Z,11.00
2018-12-07T07:35:51.878Z,11.00
2018-12-07T07:38:19.384Z,11.00
2018-12-07T07:40:46.909Z,11.00
2018-12-07T07:43:14.533Z,11.00
2018-12-07T07:45:42.193Z,11.10
2018-12-07T07:48:09.713Z,11.10
2018-12-07T07:50:37.210Z,11.10
2018-12-07T07:53:04.763Z,11.10
2018-12-07T07:55:32.282Z,11.10
2018-12-07T07:57:59.797Z,11.10
2018-12-07T08:00:27.303Z,11.10
2018-12-07T08:02:54.920Z,11.10
2018-12-07T08:05:22.659Z,11.20
2018-12-07T08:07:50.198Z,11.20
2018-12-07T08:10:17.788Z,11.20
2018-12-07T08:12:45.336Z,11.20
2018-12-07T08:15:12.845Z,11.20
2018-12-07T08:17:40.390Z,11.20
2018-12-07T08:20:08.114Z,11.30
2018-12-07T08:22:35.671Z,11.30
2018-12-07T08:25:03.762Z,11.30
2018-12-07T08:27:31.302Z,11.30
2018-12-07T08:29:58.801Z,11.30
2018-12-07T08:32:26.324Z,11.40
2018-12-07T08:34:53.854Z,11.30
2018-12-07T08:37:21.476Z,11.40
2018-12-07T08:39:49.045Z,11.40
2018-12-07T08:42:16.591Z,11.40
2018-12-07T08:44:44.129Z,11.40
2018-12-07T08:47:11.723Z,11.50
2018-12-07T08:49:44.969Z,11.50
2018-12-07T08:52:12.473Z,11.50
2018-12-07T08:54:40.002Z,11.50
2018-12-07T08:57:07.522Z,11.50
2018-12-07T08:59:35.197Z,11.50
2018-12-07T09:02:02.821Z,11.50
2018-12-07T09:04:30.339Z,11.50
2018-12-07T09:06:57.867Z,11.50
2018-12-07T09:09:25.373Z,11.60
2018-12-07T09:11:52.917Z,11.60
2018-12-07T09:14:20.425Z,11.60
2018-12-07T09:16:47.949Z,11.60
2018-12-07T09:19:15.753Z,11.60
2018-12-07T09:21:43.330Z,11.60
2018-12-07T09:24:10.838Z,11.60
2018-12-07T09:26:38.346Z,11.60
2018-12-07T09:29:05.865Z,11.60
2018-12-07T09:31:33.369Z,11.60
2018-12-07T09:34:00.977Z,11.60
2018-12-07T09:36:28.734Z,11.70
2018-12-07T09:38:56.240Z,11.60
2018-12-07T09:41:23.796Z,11.70
2018-12-07T09:43:51.337Z,11.70
2018-12-07T09:46:18.914Z,11.70
2018-12-07T09:48:46.406Z,11.70
2018-12-07T09:51:13.935Z,11.70
2018-12-07T09:53:41.573Z,11.70
2018-12-07T09:56:09.107Z,11.80
2018-12-07T09:58:36.618Z,11.70
2018-12-07T10:01:04.163Z,11.70
2018-12-07T10:03:31.715Z,11.70
2018-12-07T10:05:59.387Z,11.70
2018-12-07T10:08:26.949Z,11.70
2018-12-07T10:10:54.506Z,11.70
2018-12-07T10:13:22.010Z,11.70
2018-12-07T10:15:49.584Z,11.70
2018-12-07T10:18:17.214Z,11.70
2018-12-07T10:20:44.845Z,11.80
2018-12-07T10:23:12.371Z,11.80
2018-12-07T10:25:40.082Z,11.80
2018-12-07T10:28:07.609Z,11.90
2018-12-07T10:30:35.138Z,11.90
2018-12-07T10:33:02.734Z,11.80
2018-12-07T10:35:30.293Z,11.90
2018-12-07T10:37:57.854Z,11.90
2018-12-07T10:40:25.354Z,11.90
2018-12-07T10:42:52.937Z,11.80
2018-12-07T10:45:20.557Z,11.90
2018-12-07T10:47:50.472Z,11.90
2018-12-07T10:50:17.785Z,11.90
2018-12-07T10:52:45.354Z,11.90
2018-12-07T10:55:12.849Z,11.90
2018-12-07T10:57:40.482Z,11.90
2018-12-07T11:00:13.221Z,11.90
2018-12-07T11:02:46.502Z,11.90
2018-12-07T11:11:29.958Z,11.90
2018-12-07T11:14:03.310Z,12.00
2018-12-07T11:16:36.647Z,12.00
2018-12-07T11:19:09.903Z,12.00
2018-12-07T11:21:43.045Z,12.00
2018-12-07T11:24:16.324Z,12.00
2018-12-07T11:26:49.422Z,12.00
2018-12-07T11:29:22.864Z,12.00
2018-12-07T11:31:55.985Z,11.90
2018-12-07T11:34:25.524Z,11.90
2018-12-07T11:36:53.049Z,11.90
2018-12-07T11:39:20.784Z,11.90
2018-12-07T11:41:48.382Z,11.90
2018-12-07T11:44:15.895Z,11.90
2018-12-07T11:46:43.409Z,12.00
2018-12-07T11:49:10.916Z,12.00
2018-12-07T11:51:38.773Z,12.00
2018-12-07T11:54:06.276Z,12.00
2018-12-07T11:56:33.893Z,12.00
2018-12-07T11:59:01.378Z,12.00
2018-12-07T12:01:30.146Z,12.00
2018-12-07T12:03:57.820Z,12.00
2018-12-07T12:06:25.425Z,11.90
2018-12-07T12:08:53.018Z,11.90
2018-12-07T12:11:20.638Z,11.90
2018-12-07T12:13:48.157Z,11.90
2018-12-07T12:16:15.733Z,11.80
2018-12-07T12:18:43.261Z,11.80
2018-12-07T12:21:10.790Z,11.80
2018-12-07T12:23:38.293Z,11.80
2018-12-07T12:26:05.825Z,11.70
2018-12-07T12:28:33.442Z,11.70
2018-12-07T12:31:00.946Z,11.70
2018-12-07T12:33:28.465Z,11.70
2018-12-07T12:35:56.061Z,11.70
2018-12-07T12:38:23.585Z,11.80
2018-12-07T12:40:51.093Z,11.80
2018-12-07T12:43:18.641Z,11.80
2018-12-07T12:45:46.150Z,11.80
2018-12-07T12:48:13.660Z,11.80
2018-12-07T12:50:41.223Z,11.90
2018-12-07T12:53:08.853Z,11.90
2018-12-07T12:55:36.428Z,11.90
2018-12-07T12:58:03.913Z,11.90
2018-12-07T13:00:31.483Z,11.90
2018-12-07T13:02:59.092Z,11.90
2018-12-07T13:05:26.613Z,11.90
2018-12-07T13:07:54.118Z,12.00
2018-12-07T13:10:21.639Z,12.00
2018-12-07T13:12:49.183Z,12.00
2018-12-07T13:15:16.792Z,12.00
2018-12-07T13:17:44.282Z,12.00
2018-12-07T13:20:11.986Z,12.10
2018-12-07T13:22:39.579Z,12.10
2018-12-07T13:25:07.199Z,12.10
2018-12-07T13:27:34.706Z,12.10
2018-12-07T13:30:02.218Z,12.20
2018-12-07T13:32:29.742Z,12.10
2018-12-07T13:34:57.343Z,12.10
2018-12-07T13:37:24.857Z,12.10
2018-12-07T13:39:52.380Z,12.00
2018-12-07T13:42:20.217Z,12.00
2018-12-07T13:44:47.909Z,12.00
2018-12-07T13:47:15.851Z,11.90
2018-12-07T13:49:43.644Z,11.90
2018-12-07T13:52:11.611Z,11.90
2018-12-07T13:54:39.370Z,11.90
2018-12-07T13:57:07.238Z,11.90
2018-12-07T13:59:35.965Z,11.80
2018-12-07T14:02:04.100Z,11.80
2018-12-07T14:04:31.664Z,11.80
2018-12-07T14:06:59.387Z,11.80
2018-12-07T14:09:27.317Z,11.80
2018-12-07T14:11:54.998Z,11.70
2018-12-07T14:14:22.890Z,11.80
2018-12-07T14:16:50.840Z,11.80
2018-12-07T14:19:18.566Z,11.80
2018-12-07T14:21:46.315Z,11.70
2018-12-07T14:24:13.975Z,11.70
2018-12-07T14:26:41.589Z,11.60
2018-12-07T14:29:09.306Z,11.60
2018-12-07T14:31:37.074Z,11.60
2018-12-07T14:34:04.959Z,11.50
2018-12-07T14:36:32.777Z,11.50
2018-12-07T14:39:00.408Z,11.40
2018-12-07T14:41:28.186Z,11.40
2018-12-07T14:43:56.079Z,11.40
2018-12-07T14:46:23.884Z,11.40
2018-12-07T14:48:51.536Z,11.40
2018-12-07T14:51:19.312Z,11.40
2018-12-07T14:53:47.061Z,11.40
2018-12-07T14:56:14.962Z,11.40
2018-12-07T14:58:42.623Z,11.40
2018-12-07T15:01:10.361Z,11.40
2018-12-07T15:03:37.880Z,11.30
2018-12-07T15:06:05.552Z,11.30
2018-12-07T15:08:33.579Z,11.30
2018-12-07T15:11:01.322Z,11.30
2018-12-07T15:13:28.996Z,11.30
2018-12-07T15:15:56.756Z,11.30
2018-12-07T15:18:24.501Z,11.30
2018-12-07T15:20:52.177Z,11.30
2018-12-07T15:23:19.998Z,11.30
2018-12-07T15:25:47.856Z,11.30
2018-12-07T15:28:15.600Z,11.30
2018-12-07T15:30:43.204Z,11.30
2018-12-07T15:33:10.712Z,11.30
2018-12-07T15:35:38.642Z,11.20
2018-12-07T15:38:06.348Z,11.20
2018-12-07T15:40:34.371Z,11.20
2018-12-07T15:43:02.180Z,11.20
2018-12-07T15:45:29.837Z,11.20
2018-12-07T15:47:57.506Z,11.20
2018-12-07T15:50:25.631Z,11.20
2018-12-07T15:52:53.624Z,11.20
2018-12-07T15:55:21.501Z,11.10
2018-12-07T15:57:49.374Z,11.20
2018-12-07T16:00:17.132Z,11.20
2018-12-07T16:02:44.921Z,11.10
2018-12-07T16:05:12.690Z,11.10
2018-12-07T16:07:40.537Z,11.20
2018-12-07T16:10:08.537Z,11.20
2018-12-07T16:12:36.126Z,11.20
2018-12-07T16:15:04.008Z,11.20
2018-12-07T16:17:31.959Z,11.20
2018-12-07T16:19:59.718Z,11.20
2018-12-07T16:22:27.822Z,11.20
2018-12-07T16:24:55.543Z,11.20
2018-12-07T16:27:23.775Z,11.20
2018-12-07T16:29:51.530Z,11.20
2018-12-07T16:32:19.103Z,11.10
2018-12-07T16:34:46.957Z,11.10
2018-12-07T16:37:14.673Z,11.00
2018-12-07T16:39:42.301Z,10.90
2018-12-07T16:42:10.121Z,10.90
2018-12-07T16:44:37.922Z,10.80
2018-12-07T16:47:05.456Z,10.70
2018-12-07T16:49:33.142Z,10.70
2018-12-07T16:52:00.704Z,10.60
2018-12-07T16:54:28.594Z,10.70
2018-12-07T16:56:56.278Z,10.60
2018-12-07T16:59:24.098Z,10.50
2018-12-07T17:01:51.948Z,10.40
2018-12-07T17:04:19.790Z,10.30
2018-12-07T17:06:47.516Z,10.30
2018-12-07T17:09:15.366Z,10.20
2018-12-07T17:11:43.349Z,10.10
2018-12-07T17:14:10.941Z,10.10
2018-12-07T17:16:38.463Z,10.10
2018-12-07T17:19:06.522Z,10.10
2018-12-07T17:21:34.211Z,10.10
2018-12-07T17:24:01.852Z,10.10
2018-12-07T17:26:29.518Z,10.10
2018-12-07T17:28:57.184Z,10.10
2018-12-07T17:31:24.793Z,10.10
2018-12-07T17:33:52.515Z,10.10
2018-12-07T17:36:20.267Z,10.10
2018-12-07T17:38:47.921Z,10.10
2018-12-07T17:41:15.774Z,10.10
2018-12-07T17:43:43.577Z,10.10
2018-12-07T17:46:11.482Z,10.10
2018-12-07T17:48:39.163Z,10.10
2018-12-07T17:51:06.875Z,10.10
2018-12-07T17:53:34.525Z,10.10
2018-12-07T17:56:02.189Z,10.10
2018-12-07T17:58:29.770Z,10.00
2018-12-07T18:00:57.341Z,10.00
2018-12-07T18:03:24.902Z,10.10
2018-12-07T18:05:52.738Z,10.10
2018-12-07T18:08:20.326Z,10.10
2018-12-07T18:10:48.019Z,10.10
2018-12-07T18:13:15.580Z,10.10
2018-12-07T18:15:43.395Z,10.10
2018-12-07T18:18:11.205Z,10.10
2018-12-07T18:20:38.996Z,10.10
2018-12-07T18:23:06.841Z,10.10
2018-12-07T18:25:34.821Z,10.00
2018-12-07T18:28:02.569Z,10.00
2018-12-07T18:30:30.249Z,9.90
2018-12-07T18:32:58.013Z,9.90
2018-12-07T18:35:26.008Z,9.90
2018-12-07T18:37:53.829Z,9.80
2018-12-07T18:40:21.477Z,9.80
2018-12-07T18:42:49.014Z,9.70
2018-12-07T18:45:16.648Z,9.70
2018-12-07T18:47:44.256Z,9.70
2018-12-07T18:50:12.019Z,9.60
2018-12-07T18:52:39.679Z,9.50
2018-12-07T18:55:07.966Z,9.40
2018-12-07T18:57:35.995Z,9.40
2018-12-07T19:00:05.967Z,9.40
2018-12-07T19:02:33.709Z,9.30
2018-12-07T19:05:01.339Z,9.30
2018-12-07T19:07:29.174Z,9.30
2018-12-07T19:09:56.941Z,9.30
2018-12-07T19:12:24.752Z,9.20
2018-12-07T19:14:52.471Z,9.00
2018-12-07T19:17:20.102Z,8.80
2018-12-07T19:19:47.739Z,8.70
2018-12-07T19:22:15.481Z,8.60
2018-12-07T19:24:43.164Z,8.60
2018-12-07T19:27:10.984Z,8.50
2018-12-07T19:29:38.799Z,8.50
2018-12-07T19:32:06.411Z,8.40
2018-12-07T19:34:34.063Z,8.40
2018-12-07T19:37:01.896Z,8.40
2018-12-07T19:39:29.566Z,8.40
2018-12-07T19:41:57.203Z,8.20
2018-12-07T19:44:24.759Z,8.10
2018-12-07T19:46:52.388Z,7.90
2018-12-07T19:49:20.312Z,7.80
2018-12-07T19:51:48.004Z,7.80
2018-12-07T19:54:15.700Z,7.80
2018-12-07T19:56:43.426Z,7.60
2018-12-07T19:59:11.238Z,7.40
2018-12-07T20:01:38.884Z,7.20
2018-12-07T20:04:06.572Z,7.10
2018-12-07T20:06:34.303Z,7.00
2018-12-07T20:09:02.253Z,6.90
2018-12-07T20:11:29.923Z,6.80
2018-12-07T20:13:58.062Z,6.80
2018-12-07T20:16:26.162Z,6.90
2018-12-07T20:18:54.080Z,6.90
2018-12-07T20:21:21.770Z,6.90
2018-12-07T20:23:49.309Z,7.00
2018-12-07T20:26:16.944Z,7.00
2018-12-07T20:28:44.656Z,7.00
2018-12-07T20:31:12.829Z,7.00
2018-12-07T20:33:40.474Z,7.10
2018-12-07T20:36:08.278Z,7.10
2018-12-07T20:38:36.335Z,7.10
2018-12-07T20:41:04.255Z,7.10
2018-12-07T20:43:31.926Z,7.10
2018-12-07T20:45:59.424Z,7.10
2018-12-07T20:48:27.146Z,7.10
2018-12-07T20:50:56.033Z,7.00
2018-12-07T20:53:23.722Z,7.00
2018-12-07T20:55:51.492Z,7.00
2018-12-07T20:58:19.325Z,7.00
2018-12-07T21:00:47.165Z,7.00
2018-12-07T21:03:14.964Z,6.90
2018-12-07T21:09:18.641Z,6.90
2018-12-07T21:11:48.424Z,6.90
2018-12-07T21:14:20.575Z,6.90
2018-12-07T21:17:04.050Z,6.90
2018-12-07T21:19:33.057Z,6.90
2018-12-07T21:22:00.942Z,6.90
2018-12-07T21:24:28.846Z,6.90
2018-12-07T21:26:56.666Z,6.90
2018-12-07T21:29:24.730Z,6.90
2018-12-07T21:31:55.662Z,6.90
2018-12-07T21:37:28.700Z,6.90
2018-12-07T21:40:00.917Z,7.00
2018-12-07T21:42:28.891Z,7.00
2018-12-07T21:44:56.794Z,7.00
2018-12-07T21:50:39.125Z,7.00
2018-12-07T21:53:06.977Z,7.00
2018-12-07T21:55:34.537Z,7.00
2018-12-07T21:58:02.330Z,7.00
2018-12-07T22:00:30.293Z,6.90
2018-12-07T22:03:01.980Z,7.00
2018-12-07T22:05:27.605Z,7.00
2018-12-07T22:07:55.164Z,7.00
2018-12-07T22:10:22.934Z,7.00
2018-12-07T22:12:50.561Z,7.00
2018-12-07T22:15:18.145Z,7.00
2018-12-07T22:17:45.922Z,7.00
2018-12-07T22:20:13.570Z,7.00
2018-12-07T22:22:41.372Z,7.00
2018-12-07T22:25:09.289Z,6.90
2018-12-07T22:27:37.206Z,6.90
2018-12-07T22:30:06.355Z,6.90
2018-12-07T22:32:34.196Z,6.80
2018-12-07T22:35:01.776Z,6.80
2018-12-07T22:37:29.286Z,6.80
2018-12-07T22:39:56.907Z,6.80
2018-12-07T22:42:24.775Z,6.80
2018-12-07T22:44:52.474Z,6.80
2018-12-07T22:47:20.186Z,6.70
2018-12-07T22:49:47.762Z,6.70
2018-12-07T22:52:15.425Z,6.70
2018-12-07T22:54:42.955Z,6.70
2018-12-07T22:57:10.557Z,6.70
2018-12-07T22:59:38.066Z,6.60
2018-12-07T23:02:05.681Z,6.60
2018-12-07T23:04:33.282Z,6.60
2018-12-07T23:07:00.796Z,6.60
2018-12-07T23:09:28.351Z,6.60
2018-12-07T23:11:55.837Z,6.50
2018-12-07T23:14:23.510Z,6.50
2018-12-07T23:16:51.069Z,6.50
2018-12-07T23:19:18.692Z,6.60
2018-12-07T23:21:46.247Z,6.60
2018-12-07T23:24:13.808Z,6.60
2018-12-07T23:26:41.537Z,6.60
2018-12-07T23:29:19.445Z,6.60
2018-12-07T23:31:46.941Z,6.50
2018-12-07T23:34:14.487Z,6.50
2018-12-07T23:36:41.993Z,6.50
2018-12-07T23:39:09.561Z,6.40
2018-12-07T23:41:37.092Z,6.40
2018-12-07T23:44:04.629Z,6.40
2018-12-07T23:46:32.278Z,6.30
2018-12-07T23:48:59.826Z,6.30
2018-12-07T23:51:27.432Z,6.20
2018-12-07T23:53:54.981Z,6.20
2018-12-07T23:56:22.625Z,6.20
2018-12-07T23:58:50.277Z,6.30
